Time;durP1;ratioP1;P1;durP2;ratioP2;P2;SDS_P1;SDS_P2;PMS_P1;PMS_P2;Temp;Humidity;BMP_temperature;BMP_pressure;BME280_temperature;BME280_humidity;BME280_pressure;Samples;Min_cycle;Max_cycle;Signal;HPM_P1;HPM_P2
2023/04/07 00:01:30;;;;;;;16.73;9.77;;;10.50;33.40;;;;;;5039514;28;20240;-89
2023/04/07 00:04:15;;;;;;;17.40;8.40;;;10.60;38.40;;;;;;5039147;28;20177;-92
2023/04/07 00:06:45;;;;;;;17.93;7.73;;;10.60;36.40;;;;;;5029865;28;20209;-91
2023/04/07 00:09:12;;;;;;;12.73;7.37;;;10.40;38.40;;;;;;5003079;28;20182;-92
2023/04/07 00:11:39;;;;;;;14.43;8.43;;;10.50;43.80;;;;;;5022273;28;20194;-92
2023/04/07 00:14:05;;;;;;;13.47;8.27;;;10.90;46.20;;;;;;5022723;28;20190;-86
2023/04/07 00:16:39;;;;;;;15.57;8.37;;;10.80;37.20;;;;;;5040823;28;20173;-88
2023/04/07 00:19:15;;;;;;;13.20;7.73;;;10.80;32.70;;;;;;5023980;28;20171;-90
2023/04/07 00:21:48;;;;;;;15.73;8.90;;;10.70;30.80;;;;;;5038226;28;20194;-91
2023/04/07 00:25:09;;;;;;;;;;;;;;;;;;;;;
2023/04/07 00:28:16;;;;;;;14.47;8.80;;;10.60;18.30;;;;;;5017592;28;20217;-92
2023/04/07 00:31:02;;;;;;;15.90;8.80;;;10.70;17.50;;;;;;4996396;28;20186;-90
2023/04/07 00:33:28;;;;;;;13.83;9.07;;;10.80;17.40;;;;;;5425841;23;20194;-89
2023/04/07 00:36:19;;;;;;;14.20;8.80;;;10.70;17.50;;;;;;5598028;23;20184;-92
2023/04/07 00:41:17;;;;;;;12.87;9.50;;;10.70;13.00;;;;;;5013184;28;20250;-90
2023/04/07 00:43:42;;;;;;;13.47;8.70;;;10.80;7.80;;;;;;5001779;28;20151;-87
2023/04/07 00:46:12;;;;;;;12.97;9.70;;;10.60;7.70;;;;;;4999745;28;20194;-88
2023/04/07 00:49:00;;;;;;;14.03;8.73;;;10.60;9.60;;;;;;5014101;28;20191;-90
2023/04/07 00:51:46;;;;;;;14.20;8.70;;;10.60;8.00;;;;;;5017448;28;20213;-87
2023/04/07 00:54:12;;;;;;;16.13;9.73;;;10.70;6.60;;;;;;5003929;28;20174;-88
2023/04/07 00:56:39;;;;;;;12.53;9.20;;;10.50;6.80;;;;;;5000511;28;20190;-92
2023/04/07 00:59:11;;;;;;;11.60;9.23;;;10.50;6.50;;;;;;4998747;28;20179;-90
2023/04/07 01:02:00;;;;;;;12.30;9.00;;;10.50;6.50;;;;;;5013022;28;20178;-89
2023/04/07 01:05:07;;;;;;;12.50;8.83;;;10.50;3.50;;;;;;5017858;28;20202;-93
2023/04/07 01:08:02;;;;;;;12.97;9.03;;;10.50;1.00;;;;;;5002138;28;20187;-91
2023/04/07 01:11:02;;;;;;;15.40;9.23;;;10.60;1.00;;;;;;5003058;28;20170;-90
2023/04/07 01:13:44;;;;;;;15.13;9.27;;;10.50;1.00;;;;;;5020705;28;20167;-87
2023/04/07 01:16:52;;;;;;;13.23;9.40;;;10.60;1.00;;;;;;5020257;28;20182;-86
2023/04/07 01:19:39;;;;;;;13.93;8.67;;;10.50;1.00;;;;;;4980486;28;20209;-88
2023/04/07 01:22:13;;;;;;;14.40;10.10;;;10.50;1.00;;;;;;5000871;28;20194;-92
2023/04/07 01:25:00;;;;;;;13.40;9.63;;;10.30;1.00;;;;;;5002058;28;20151;-90
2023/04/07 01:28:02;;;;;;;16.07;10.23;;;10.30;1.00;;;;;;5016272;28;20182;-91
2023/04/07 01:30:33;;;;;;;17.53;10.30;;;10.30;1.00;;;;;;5000677;28;20171;-90
2023/04/07 01:33:01;;;;;;;17.97;10.90;;;10.40;1.00;;;;;;5003578;28;20169;-87
2023/04/07 01:35:36;;;;;;;15.53;10.37;;;10.30;1.00;;;;;;5003227;28;20186;-88
2023/04/07 01:38:03;;;;;;;16.67;10.90;;;10.40;1.00;;;;;;4987626;28;20174;-89
2023/04/07 01:40:54;;;;;;;13.90;10.23;;;10.50;1.00;;;;;;5003573;28;20221;-89
2023/04/07 01:43:24;;;;;;;15.33;10.50;;;10.50;1.00;;;;;;5003174;28;20163;-85
2023/04/07 01:46:12;;;;;;;15.53;10.63;;;10.50;1.00;;;;;;5000600;28;20163;-88
2023/04/07 01:49:02;;;;;;;15.00;10.60;;;10.50;1.00;;;;;;4994544;28;20175;-91
2023/04/07 01:52:04;;;;;;;17.30;11.47;;;10.40;1.00;;;;;;5016929;28;20171;-89
2023/04/07 01:54:33;;;;;;;18.40;10.57;;;10.50;1.00;;;;;;5012191;28;20542;-88
2023/04/07 01:57:47;;;;;;;17.80;10.63;;;10.50;1.00;;;;;;5000982;28;20187;-90
2023/04/07 02:00:25;;;;;;;14.13;10.53;;;10.60;1.00;;;;;;5001193;28;20195;-91
2023/04/07 02:02:58;;;;;;;14.43;10.07;;;10.60;1.00;;;;;;5002072;28;20187;-89
2023/04/07 02:05:26;;;;;;;18.63;10.63;;;10.60;1.00;;;;;;4984798;28;20190;-86
2023/04/07 02:08:02;;;;;;;14.10;10.10;;;10.60;1.00;;;;;;4999261;28;20154;-88
2023/04/07 02:10:31;;;;;;;15.37;9.97;;;10.60;1.00;;;;;;4999420;28;20166;-86
2023/04/07 02:12:59;;;;;;;15.77;9.87;;;10.60;1.00;;;;;;4969091;28;20182;-88
2023/04/07 02:15:26;;;;;;;14.70;10.50;;;10.60;1.00;;;;;;4964189;28;20195;-92
2023/04/07 02:17:56;;;;;;;14.47;9.60;;;10.60;1.00;;;;;;4980886;28;20210;-89
2023/04/07 02:20:49;;;;;;;15.30;10.00;;;10.50;1.00;;;;;;4999597;28;20210;-92
2023/04/07 02:23:16;;;;;;;15.40;10.57;;;10.50;1.00;;;;;;5015490;28;20167;-92
2023/04/07 02:25:51;;;;;;;12.73;10.17;;;10.50;1.00;;;;;;5017009;28;20269;-90
2023/04/07 02:28:17;;;;;;;16.27;10.50;;;10.40;1.00;;;;;;4999043;28;20198;-90
2023/04/07 02:30:52;;;;;;;14.33;10.27;;;10.40;1.00;;;;;;4999014;28;20246;-91
2023/04/07 02:34:05;;;;;;;14.80;9.80;;;10.30;1.00;;;;;;4983816;28;20179;-90
2023/04/07 02:36:51;;;;;;;19.47;10.77;;;10.40;1.00;;;;;;5016715;28;20190;-90
2023/04/07 02:39:18;;;;;;;15.30;10.00;;;10.30;1.00;;;;;;4983559;28;20206;-90
2023/04/07 02:41:44;;;;;;;16.50;11.50;;;10.30;1.00;;;;;;4999448;28;20256;-90
2023/04/07 02:44:15;;;;;;;16.07;10.83;;;10.50;1.00;;;;;;5014793;28;20171;-91
2023/04/07 02:46:40;;;;;;;15.13;10.87;;;10.30;1.00;;;;;;5000013;28;20254;-90
2023/04/07 02:49:31;;;;;;;16.53;10.33;;;10.20;1.00;;;;;;5000575;28;20171;-91
2023/04/07 02:51:58;;;;;;;15.17;10.67;;;10.20;1.00;;;;;;5018902;28;20202;-90
2023/04/07 02:54:28;;;;;;;18.17;11.37;;;10.10;1.00;;;;;;5002397;28;20226;-89
2023/04/07 02:57:02;;;;;;;18.47;11.27;;;10.20;1.00;;;;;;5001932;28;20246;-90
2023/04/07 02:59:28;;;;;;;18.27;11.57;;;10.10;1.00;;;;;;5002361;28;20266;-91
2023/04/07 03:01:57;;;;;;;16.83;11.37;;;10.10;1.00;;;;;;5002355;28;20159;-96
2023/04/07 03:04:30;;;;;;;20.83;12.33;;;10.20;1.00;;;;;;5018108;28;20179;-91
2023/04/07 03:07:19;;;;;;;26.13;14.20;;;10.10;1.00;;;;;;5015244;28;20167;-90
2023/04/07 03:09:56;;;;;;;25.83;13.47;;;10.10;1.00;;;;;;5001598;28;20242;-90
2023/04/07 03:12:24;;;;;;;29.07;14.63;;;10.10;1.00;;;;;;5019155;28;20155;-91
2023/04/07 03:14:53;;;;;;;29.40;14.33;;;10.20;1.00;;;;;;5017072;28;20171;-91
2023/04/07 03:17:45;;;;;;;22.90;13.10;;;10.10;1.00;;;;;;5016735;28;20226;-91
2023/04/07 03:20:19;;;;;;;25.37;13.13;;;10.20;1.00;;;;;;5014411;28;20241;-93
2023/04/07 03:22:46;;;;;;;23.73;12.17;;;10.20;1.00;;;;;;5001185;28;20175;-93
2023/04/07 03:25:31;;;;;;;23.10;11.93;;;10.20;1.00;;;;;;5135824;23;20241;-89
2023/04/07 03:27:58;;;;;;;21.13;11.93;;;10.20;1.00;;;;;;5033308;28;20194;-88
2023/04/07 03:30:26;;;;;;;23.00;12.30;;;10.20;1.00;;;;;;5021372;28;20174;-89
2023/04/07 03:32:58;;;;;;;23.30;12.47;;;10.10;1.00;;;;;;5020155;28;20234;-90
2023/04/07 03:35:45;;;;;;;21.17;12.10;;;10.10;1.00;;;;;;5020701;28;20163;-92
2023/04/07 03:38:12;;;;;;;24.27;12.93;;;10.10;1.00;;;;;;5033256;28;20174;-92
2023/04/07 03:40:39;;;;;;;26.37;13.33;;;10.00;1.00;;;;;;5016512;28;20210;-90
2023/04/07 03:43:18;;;;;;;22.27;12.60;;;10.00;1.00;;;;;;5035536;28;20162;-86
2023/04/07 03:46:04;;;;;;;25.73;13.13;;;10.00;1.00;;;;;;5035909;28;20161;-91
2023/04/07 03:48:30;;;;;;;23.67;12.77;;;10.10;1.00;;;;;;5018853;28;20170;-90
2023/04/07 03:50:58;;;;;;;24.97;13.63;;;10.10;1.00;;;;;;5038023;28;20194;-88
2023/04/07 03:53:24;;;;;;;26.00;14.37;;;10.20;1.00;;;;;;5019697;28;20186;-89
2023/04/07 03:56:14;;;;;;;27.27;14.33;;;10.20;1.00;;;;;;5011024;28;20183;-96
2023/04/07 03:58:41;;;;;;;30.57;15.43;;;10.20;1.00;;;;;;5041458;28;20178;-93
2023/04/07 04:01:09;;;;;;;29.10;14.83;;;10.20;1.00;;;;;;5027451;28;20240;-88
2023/04/07 04:03:44;;;;;;;29.50;16.17;;;10.30;1.00;;;;;;5028342;28;20189;-94
2023/04/07 04:06:10;;;;;;;38.13;16.73;;;10.30;1.00;;;;;;5026301;28;20173;-95
2023/04/07 04:08:37;;;;;;;30.23;15.47;;;10.40;1.00;;;;;;5026854;28;20238;-93
2023/04/07 04:11:02;;;;;;;32.63;17.33;;;10.40;1.00;;;;;;5034827;28;20184;-89
2023/04/07 04:13:28;;;;;;;34.13;16.67;;;10.20;1.00;;;;;;5039804;28;20205;-89
2023/04/07 04:16:12;;;;;;;36.07;17.27;;;10.20;1.00;;;;;;5024380;28;20729;-88
2023/04/07 04:18:40;;;;;;;29.80;16.10;;;9.90;1.00;;;;;;5024412;28;20230;-89
2023/04/07 04:21:07;;;;;;;34.67;17.43;;;9.80;1.00;;;;;;5023231;28;20250;-93
2023/04/07 04:23:33;;;;;;;35.80;18.17;;;9.80;1.00;;;;;;5040046;28;20175;-89
2023/04/07 04:26:04;;;;;;;36.40;16.47;;;9.60;2.00;;;;;;5018724;28;20198;-89
2023/04/07 04:28:32;;;;;;;31.20;16.97;;;9.50;9.60;;;;;;5020908;28;20154;-87
2023/04/07 04:31:13;;;;;;;34.60;17.13;;;9.60;11.50;;;;;;5006651;28;20205;-91
2023/04/07 04:33:40;;;;;;;32.37;16.60;;;9.60;15.60;;;;;;5036690;28;20182;-90
2023/04/07 04:36:07;;;;;;;37.77;18.07;;;9.60;16.10;;;;;;5018251;28;20174;-94
2023/04/07 04:38:33;;;;;;;39.67;18.57;;;9.60;16.00;;;;;;5018670;28;20171;-92
2023/04/07 04:40:59;;;;;;;35.17;18.47;;;9.60;17.50;;;;;;4997794;28;20226;-93
2023/04/07 04:43:28;;;;;;;39.03;19.07;;;9.60;16.70;;;;;;5016772;28;20182;-91
2023/04/07 04:45:55;;;;;;;37.57;18.70;;;9.70;15.70;;;;;;5002621;28;20186;-93
2023/04/07 04:48:21;;;;;;;34.97;17.73;;;9.60;13.80;;;;;;4999388;28;20241;-92
2023/04/07 04:50:48;;;;;;;36.10;19.33;;;9.60;15.30;;;;;;4999543;28;20179;-92
2023/04/07 04:53:15;;;;;;;39.17;19.63;;;9.60;19.50;;;;;;5019944;28;20158;-91
2023/04/07 04:55:50;;;;;;;35.27;17.63;;;9.70;16.00;;;;;;5019938;28;20198;-91
2023/04/07 04:58:30;;;;;;;42.73;19.60;;;9.60;13.70;;;;;;5039578;28;20181;-91
2023/04/07 05:01:04;;;;;;;35.83;19.63;;;9.60;8.90;;;;;;5040472;28;20197;-90
2023/04/07 05:03:43;;;;;;;40.97;19.67;;;9.70;9.40;;;;;;5020915;28;20167;-88
2023/04/07 05:06:20;;;;;;;35.80;17.43;;;9.80;8.30;;;;;;5022941;28;20189;-89
2023/04/07 05:08:46;;;;;;;37.60;19.20;;;9.60;6.80;;;;;;5037590;28;20498;-90
2023/04/07 05:11:13;;;;;;;35.50;19.63;;;9.50;11.40;;;;;;5021635;28;20175;-93
2023/04/07 05:13:40;;;;;;;32.07;17.83;;;9.50;16.60;;;;;;5015764;28;20193;-85
2023/04/07 05:16:07;;;;;;;40.40;18.77;;;9.50;16.00;;;;;;5022704;28;20186;-86
2023/04/07 05:18:35;;;;;;;39.17;18.57;;;9.40;15.30;;;;;;5019271;28;20170;-89
2023/04/07 05:21:05;;;;;;;33.13;16.70;;;9.50;16.00;;;;;;5019045;28;20265;-94
2023/04/07 05:24:05;;;;;;;34.13;17.83;;;9.50;13.70;;;;;;5036151;28;20212;-91
2023/04/07 05:26:56;;;;;;;34.20;17.33;;;9.50;12.80;;;;;;5038194;28;20232;-91
2023/04/07 05:29:22;;;;;;;32.10;18.33;;;9.50;10.10;;;;;;5021411;28;20174;-90
2023/04/07 05:31:52;;;;;;;31.07;16.77;;;9.40;9.00;;;;;;4990339;28;20173;-89
2023/04/07 05:34:40;;;;;;;29.83;16.57;;;9.40;15.90;;;;;;5038302;28;20250;-90
2023/04/07 05:37:24;;;;;;;33.60;17.93;;;9.60;19.90;;;;;;5020440;28;20210;-91
2023/04/07 05:39:51;;;;;;;36.60;17.73;;;9.50;13.40;;;;;;5039459;28;20217;-89
2023/04/07 05:42:48;;;;;;;30.13;17.60;;;9.30;15.30;;;;;;5039467;28;20170;-89
2023/04/07 05:45:32;;;;;;;33.13;17.30;;;9.30;22.60;;;;;;5020012;28;20169;-91
2023/04/07 05:48:02;;;;;;;30.57;16.80;;;9.40;24.80;;;;;;5036860;28;20189;-91
2023/04/07 05:50:44;;;;;;;32.10;18.10;;;9.30;22.30;;;;;;5021986;28;20170;-92
2023/04/07 05:53:33;;;;;;;33.83;19.07;;;9.50;23.30;;;;;;5050071;23;20256;-87
2023/04/07 05:56:20;;;;;;;30.77;17.10;;;9.40;19.80;;;;;;5019347;28;20174;-91
2023/04/07 05:59:18;;;;;;;29.33;17.70;;;9.60;10.50;;;;;;5010756;28;20210;-87
2023/04/07 06:01:45;;;;;;;29.80;17.53;;;9.50;10.30;;;;;;5018166;28;20285;-92
2023/04/07 06:04:12;;;;;;;32.93;18.33;;;9.60;10.50;;;;;;5016886;28;20182;-91
2023/04/07 06:06:43;;;;;;;31.47;18.80;;;9.60;7.50;;;;;;5037496;28;20182;-91
2023/04/07 06:09:18;;;;;;;32.20;18.30;;;9.70;6.40;;;;;;5020676;28;20163;-92
2023/04/07 06:11:52;;;;;;;35.33;19.33;;;9.60;5.40;;;;;;5019530;28;20165;-92
2023/04/07 06:14:18;;;;;;;33.83;18.77;;;9.70;7.20;;;;;;5014729;28;20173;-87
2023/04/07 06:16:49;;;;;;;37.27;18.53;;;9.80;2.70;;;;;;5001006;28;20285;-93
2023/04/07 06:19:16;;;;;;;27.57;18.10;;;9.70;1.00;;;;;;5016692;28;20183;-90
2023/04/07 06:21:50;;;;;;;33.40;18.90;;;9.60;3.60;;;;;;5033698;28;20273;-92
2023/04/07 06:24:16;;;;;;;33.07;19.10;;;9.80;5.20;;;;;;5013999;28;20205;-87
2023/04/07 06:26:43;;;;;;;34.10;20.70;;;10.10;1.00;;;;;;5016523;28;20170;-91
2023/04/07 06:29:09;;;;;;;31.43;19.77;;;10.00;1.00;;;;;;5014883;28;20175;-90
2023/04/07 06:31:36;;;;;;;34.97;19.40;;;10.10;1.00;;;;;;5033680;28;20162;-91
2023/04/07 06:34:28;;;;;;;31.37;19.30;;;10.20;1.00;;;;;;5000805;28;20201;-89
2023/04/07 06:37:01;;;;;;;32.67;19.70;;;10.00;1.00;;;;;;5037375;28;20161;-89
2023/04/07 06:39:32;;;;;;;35.87;20.03;;;10.10;1.00;;;;;;5018627;28;20194;-90
2023/04/07 06:41:57;;;;;;;27.63;18.00;;;10.30;1.00;;;;;;5017597;28;20541;-88
2023/04/07 06:44:47;;;;;;;32.10;17.40;;;10.30;1.00;;;;;;5018613;28;20170;-89
2023/04/07 06:47:13;;;;;;;27.80;16.77;;;10.10;1.00;;;;;;5002289;28;20186;-93
2023/04/07 06:49:41;;;;;;;27.30;16.77;;;9.90;1.00;;;;;;5020356;28;20265;-87
2023/04/07 06:52:27;;;;;;;26.60;16.30;;;10.00;1.00;;;;;;5035955;28;20253;-88
2023/04/07 06:54:53;;;;;;;24.20;13.97;;;9.90;99.90;;;;;;5020504;28;20178;-90
2023/04/07 06:57:22;;;;;;;19.63;13.03;;;9.60;1.00;;;;;;5020064;28;20190;-90
2023/04/07 06:59:48;;;;;;;17.00;11.87;;;9.50;1.00;;;;;;5020230;28;20263;-90
2023/04/07 07:02:19;;;;;;;27.20;14.13;;;9.30;1.00;;;;;;5015218;28;20178;-91
2023/04/07 07:04:45;;;;;;;22.03;12.83;;;9.20;4.10;;;;;;5034330;28;20181;-93
2023/04/07 07:07:11;;;;;;;20.87;13.37;;;9.10;8.20;;;;;;5014481;28;20201;-91
2023/04/07 07:09:37;;;;;;;21.97;13.50;;;9.10;13.70;;;;;;5013477;28;20201;-90
2023/04/07 07:12:05;;;;;;;21.10;13.17;;;9.20;15.10;;;;;;5030226;28;20181;-88
2023/04/07 07:14:47;;;;;;;20.17;12.70;;;9.10;14.00;;;;;;4999029;28;20186;-89
2023/04/07 07:17:30;;;;;;;19.97;13.73;;;9.10;8.70;;;;;;5035360;28;20201;-89
2023/04/07 07:19:56;;;;;;;19.93;14.13;;;9.20;9.80;;;;;;5019864;28;20206;-87
2023/04/07 07:22:23;;;;;;;18.33;13.27;;;9.10;9.50;;;;;;5034035;28;20297;-89
2023/04/07 07:25:05;;;;;;;21.50;13.53;;;9.10;9.30;;;;;;5003512;28;20262;-89
2023/04/07 07:27:30;;;;;;;17.17;11.63;;;9.10;12.20;;;;;;5013105;28;20186;-89
2023/04/07 07:30:25;;;;;;;15.87;9.43;;;9.30;13.50;;;;;;5017298;28;20197;-89
2023/04/07 07:32:54;;;;;;;13.93;9.30;;;9.40;1.00;;;;;;5016719;28;20202;-88
2023/04/07 07:35:27;;;;;;;17.10;9.23;;;9.50;1.00;;;;;;5026480;28;20196;-87
2023/04/07 07:38:21;;;;;;;14.93;9.07;;;9.70;1.00;;;;;;5038013;28;20185;-88
2023/04/07 07:40:50;;;;;;;14.50;9.27;;;9.90;1.00;;;;;;5019168;28;20265;-88
2023/04/07 07:43:36;;;;;;;16.60;10.10;;;10.00;1.00;;;;;;5039672;28;20167;-86
2023/04/07 07:46:06;;;;;;;16.67;10.00;;;10.00;1.00;;;;;;5041245;28;20189;-90
2023/04/07 07:49:01;;;;;;;14.97;9.27;;;9.90;1.00;;;;;;5024634;28;20171;-89
2023/04/07 07:51:47;;;;;;;14.57;8.80;;;9.80;1.00;;;;;;5024422;28;20173;-89
2023/04/07 07:54:30;;;;;;;13.53;8.80;;;9.80;1.00;;;;;;5002842;28;20221;-90
2023/04/07 07:57:01;;;;;;;14.10;8.90;;;9.60;1.00;;;;;;5024768;28;20173;-87
2023/04/07 07:59:48;;;;;;;16.97;8.97;;;9.60;1.00;;;;;;5039907;28;20201;-89
2023/04/07 08:02:28;;;;;;;12.20;7.40;;;9.70;1.00;;;;;;4992396;28;20345;-87
2023/04/07 08:05:03;;;;;;;10.67;6.70;;;9.50;1.00;;;;;;5041406;28;20158;-88
2023/04/07 08:07:30;;;;;;;10.43;7.80;;;9.40;1.00;;;;;;5023795;28;20166;-87
2023/04/07 08:10:15;;;;;;;11.47;7.13;;;9.40;1.00;;;;;;5040470;28;20170;-89
2023/04/07 08:12:50;;;;;;;14.07;7.57;;;9.60;1.00;;;;;;5040460;28;20143;-91
2023/04/07 08:15:34;;;;;;;11.27;5.90;;;9.70;1.00;;;;;;5023003;28;20214;-89
2023/04/07 08:18:13;;;;;;;12.77;6.30;;;9.80;1.00;;;;;;5023335;28;20172;-89
2023/04/07 08:20:40;;;;;;;7.13;4.60;;;9.70;99.90;;;;;;4992595;28;20217;-88
2023/04/07 08:23:07;;;;;;;10.53;5.17;;;9.50;99.90;;;;;;5023886;28;20178;-89
2023/04/07 08:25:39;;;;;;;8.07;5.17;;;9.50;99.90;;;;;;5007360;28;20270;-91
2023/04/07 08:28:08;;;;;;;8.00;4.93;;;9.50;99.90;;;;;;5003067;28;20170;-88
2023/04/07 08:30:35;;;;;;;7.80;5.20;;;9.50;99.90;;;;;;5000299;28;20197;-88
2023/04/07 08:33:11;;;;;;;11.40;5.23;;;9.50;99.90;;;;;;5019378;28;20171;-90
2023/04/07 08:35:57;;;;;;;8.90;5.97;;;9.40;99.90;;;;;;5036231;28;20174;-89
2023/04/07 08:38:31;;;;;;;8.97;5.67;;;9.50;99.90;;;;;;5018986;28;20184;-92
2023/04/07 08:41:07;;;;;;;9.50;6.23;;;9.50;99.90;;;;;;5018232;28;20222;-89
2023/04/07 08:43:34;;;;;;;10.17;6.47;;;9.70;99.90;;;;;;5018440;28;20158;-91
2023/04/07 08:46:11;;;;;;;11.23;6.43;;;9.70;99.90;;;;;;5015218;28;20254;-89
2023/04/07 08:48:59;;;;;;;8.23;6.03;;;9.80;99.90;;;;;;5011322;28;20210;-92
2023/04/07 08:51:48;;;;;;;9.53;6.33;;;9.80;99.90;;;;;;5018294;28;20170;-91
2023/04/07 08:54:37;;;;;;;9.13;5.83;;;9.80;99.90;;;;;;5033092;28;20550;-92
2023/04/07 08:57:19;;;;;;;8.80;5.77;;;10.00;99.90;;;;;;5035113;28;20200;-90
2023/04/07 09:00:10;;;;;;;12.27;6.67;;;10.10;99.90;;;;;;5017087;28;20197;-88
2023/04/07 09:02:57;;;;;;;7.83;5.10;;;10.10;99.90;;;;;;5019357;28;20182;-90
2023/04/07 09:05:46;;;;;;;9.30;5.13;;;10.30;99.90;;;;;;5035472;28;20186;-88
2023/04/07 09:08:36;;;;;;;7.80;4.93;;;10.10;99.90;;;;;;5036089;28;20174;-89
2023/04/07 09:11:03;;;;;;;7.47;4.40;;;10.30;99.90;;;;;;5008945;28;20178;-86
2023/04/07 09:13:30;;;;;;;8.67;4.97;;;10.40;99.90;;;;;;5021444;28;20174;-89
2023/04/07 09:16:05;;;;;;;4.37;2.20;;;10.70;99.90;;;;;;5036934;28;20218;-89
2023/04/07 09:18:31;;;;;;;4.87;2.83;;;10.60;99.90;;;;;;5039114;28;20221;-89
2023/04/07 09:21:11;;;;;;;4.60;2.27;;;10.70;99.90;;;;;;5022629;28;20217;-89
2023/04/07 09:23:57;;;;;;;4.00;1.90;;;10.80;99.90;;;;;;5020993;28;20254;-87
2023/04/07 09:32:00;;;;;;;3.23;1.50;;;11.10;99.90;;;;;;5033678;28;20217;-88
2023/04/07 09:34:38;;;;;;;4.27;1.90;;;11.10;99.90;;;;;;5020875;28;20190;-87
2023/04/07 09:37:23;;;;;;;3.43;1.63;;;11.20;99.90;;;;;;5038144;28;20201;-87
2023/04/07 09:39:52;;;;;;;3.80;1.67;;;11.40;99.90;;;;;;5020799;28;20174;-88
2023/04/07 09:42:21;;;;;;;4.70;1.80;;;11.40;99.90;;;;;;5021574;28;20201;-90
2023/04/07 09:45:08;;;;;;;5.90;1.83;;;11.40;99.90;;;;;;5021593;28;20197;-88
2023/04/07 09:47:57;;;;;;;4.67;1.93;;;11.50;99.90;;;;;;5000548;28;20198;-90
2023/04/07 09:50:48;;;;;;;6.13;1.80;;;11.50;99.90;;;;;;5013114;28;20170;-89
2023/04/07 09:53:19;;;;;;;5.20;1.83;;;11.40;99.90;;;;;;5019941;28;20178;-89
2023/04/07 09:55:52;;;;;;;3.77;1.70;;;11.50;99.90;;;;;;5039323;28;20186;-87
2023/04/07 09:58:31;;;;;;;3.87;1.60;;;11.50;99.90;;;;;;5020398;28;20201;-87
2023/04/07 10:01:16;;;;;;;3.10;1.40;;;11.50;99.90;;;;;;5018551;28;20190;-87
2023/04/07 10:03:46;;;;;;;5.87;1.70;;;11.50;99.90;;;;;;5017310;28;20189;-88
2023/04/07 10:06:35;;;;;;;4.57;1.90;;;11.80;99.90;;;;;;5016647;28;20181;-88
2023/04/07 10:09:03;;;;;;;3.83;1.97;;;12.10;99.90;;;;;;5021665;28;20205;-88
2023/04/07 10:11:32;;;;;;;4.33;1.80;;;12.30;99.90;;;;;;5019189;28;20170;-89
2023/04/07 10:14:00;;;;;;;4.90;1.70;;;12.40;99.90;;;;;;5017661;28;20166;-89
2023/04/07 10:16:47;;;;;;;5.63;1.90;;;12.50;99.90;;;;;;5031511;28;20198;-91
2023/04/07 10:19:23;;;;;;;4.77;1.57;;;12.50;99.90;;;;;;5035155;28;20185;-91
2023/04/07 10:22:00;;;;;;;3.63;1.50;;;12.40;99.90;;;;;;5034901;28;20273;-88
2023/04/07 10:24:51;;;;;;;8.37;2.60;;;12.20;99.90;;;;;;5020853;28;20166;-89
2023/04/07 10:27:28;;;;;;;4.67;2.70;;;12.00;99.90;;;;;;5021426;28;20201;-87
2023/04/07 10:30:41;;;;;;;6.90;3.50;;;11.80;99.90;;;;;;5023545;28;20189;-88
2023/04/07 10:33:25;;;;;;;6.00;2.93;;;11.60;99.90;;;;;;5037425;28;20243;-88
2023/04/07 10:36:08;;;;;;;9.07;3.27;;;11.50;99.90;;;;;;5055290;28;20200;-89
2023/04/07 10:38:35;;;;;;;7.67;2.87;;;11.50;99.90;;;;;;5037578;28;20208;-92
2023/04/07 10:41:43;;;;;;;4.97;2.83;;;11.80;99.90;;;;;;5022501;28;20209;-88
2023/04/07 10:44:39;;;;;;;6.17;3.00;;;11.40;99.90;;;;;;5036335;28;20241;-87
2023/04/07 10:47:09;;;;;;;4.10;2.10;;;11.40;99.90;;;;;;5033094;28;20165;-87
2023/04/07 10:50:06;;;;;;;7.70;2.57;;;11.40;99.90;;;;;;5024005;28;20185;-87
2023/04/07 10:52:33;;;;;;;5.30;2.53;;;11.40;99.90;;;;;;5039589;28;20169;-87
2023/04/07 10:55:49;;;;;;;5.67;2.60;;;11.40;99.90;;;;;;5040711;28;20180;-86
2023/04/07 10:58:29;;;;;;;5.60;2.93;;;11.30;99.90;;;;;;5045349;28;20165;-88
2023/04/07 11:01:19;;;;;;;6.60;2.60;;;11.20;99.90;;;;;;5040783;28;20193;-87
2023/04/07 11:04:03;;;;;;;5.90;2.80;;;11.20;99.90;;;;;;5058117;28;20169;-93
2023/04/07 11:06:42;;;;;;;7.27;3.10;;;11.20;99.90;;;;;;5037055;28;20177;-94
2023/04/07 11:09:21;;;;;;;7.70;2.97;;;11.30;99.90;;;;;;5037117;28;20236;-89
2023/04/07 11:11:51;;;;;;;7.07;3.20;;;11.50;99.90;;;;;;5034422;28;20177;-88
2023/04/07 11:14:52;;;;;;;8.00;3.10;;;11.50;99.90;;;;;;5033374;28;20190;-88
2023/04/07 11:17:40;;;;;;;8.37;3.47;;;11.50;99.90;;;;;;5050677;28;20177;-91
2023/04/07 11:20:40;;;;;;;6.23;2.73;;;11.40;99.90;;;;;;5050884;28;20224;-88
2023/04/07 11:23:38;;;;;;;7.80;2.60;;;11.50;99.90;;;;;;5035777;28;20285;-88
2023/04/07 11:26:05;;;;;;;7.90;3.00;;;11.40;99.90;;;;;;5039997;28;20201;-87
2023/04/07 11:28:57;;;;;;;7.73;2.90;;;11.30;99.90;;;;;;5055482;28;20169;-89
2023/04/07 11:31:37;;;;;;;7.70;2.90;;;11.30;99.90;;;;;;5036996;28;20185;-86
2023/04/07 11:34:27;;;;;;;9.37;3.27;;;11.20;99.90;;;;;;5038536;28;20162;-88
2023/04/07 11:37:02;;;;;;;7.50;3.10;;;11.00;99.90;;;;;;5055780;28;20185;-89
2023/04/07 11:39:34;;;;;;;11.93;4.07;;;11.00;99.90;;;;;;5047589;28;20177;-87
2023/04/07 11:42:03;;;;;;;9.90;4.23;;;11.00;99.90;;;;;;5056380;28;20268;-87
2023/04/07 11:44:48;;;;;;;7.10;3.63;;;11.10;99.90;;;;;;5018274;28;20181;-92
2023/04/07 11:47:22;;;;;;;11.57;3.63;;;11.30;99.90;;;;;;5032449;28;20206;-93
2023/04/07 11:49:54;;;;;;;9.47;4.30;;;11.50;99.90;;;;;;5027754;28;20178;-89
2023/04/07 11:52:27;;;;;;;9.97;4.00;;;11.70;99.90;;;;;;5035408;28;20174;-88
2023/04/07 11:54:53;;;;;;;11.53;3.90;;;11.80;99.90;;;;;;5037941;28;20166;-86
2023/04/07 11:57:46;;;;;;;8.97;3.40;;;12.00;99.90;;;;;;5054418;28;20209;-86
2023/04/07 12:00:19;;;;;;;7.13;3.40;;;12.20;99.90;;;;;;5039593;28;20213;-90
2023/04/07 12:02:50;;;;;;;5.60;3.37;;;12.30;99.90;;;;;;5039625;28;20181;-87
2023/04/07 12:05:19;;;;;;;9.63;3.93;;;12.50;99.90;;;;;;5038754;28;20162;-89
2023/04/07 12:07:59;;;;;;;8.93;3.93;;;12.50;99.90;;;;;;5035442;28;20170;-90
2023/04/07 12:10:40;;;;;;;8.37;3.93;;;12.40;99.90;;;;;;5020527;28;20197;-88
2023/04/07 12:13:22;;;;;;;6.90;3.07;;;12.50;99.90;;;;;;5054849;28;20201;-88
2023/04/07 12:15:50;;;;;;;6.90;2.50;;;12.10;99.90;;;;;;5037954;28;20190;-89
2023/04/07 12:18:17;;;;;;;6.33;2.53;;;11.70;99.90;;;;;;5020777;28;20232;-88
2023/04/07 12:21:09;;;;;;;7.10;2.73;;;11.60;99.90;;;;;;5036201;28;20190;-92
2023/04/07 12:23:36;;;;;;;5.27;2.63;;;11.40;99.90;;;;;;5037572;28;20182;-89
2023/04/07 12:26:29;;;;;;;6.87;2.67;;;11.40;99.90;;;;;;5056933;28;20146;-88
2023/04/07 12:29:03;;;;;;;4.77;2.30;;;11.40;99.90;;;;;;5040616;28;20242;-89
2023/04/07 12:31:55;;;;;;;6.13;3.27;;;11.50;99.90;;;;;;5059681;28;20197;-88
2023/04/07 12:34:28;;;;;;;8.30;3.33;;;11.60;99.90;;;;;;5040486;28;20256;-86
2023/04/07 12:37:05;;;;;;;8.17;3.20;;;11.60;99.90;;;;;;5042103;28;20166;-89
2023/04/07 12:39:54;;;;;;;6.13;2.77;;;11.80;99.90;;;;;;5041400;28;20192;-86
2023/04/07 12:42:20;;;;;;;6.57;3.13;;;11.70;99.90;;;;;;5041384;28;20197;-89
2023/04/07 12:45:01;;;;;;;11.03;3.60;;;11.80;99.90;;;;;;5043552;28;20216;-87
2023/04/07 12:47:36;;;;;;;8.23;4.17;;;11.60;99.90;;;;;;5058260;28;20185;-89
2023/04/07 12:50:15;;;;;;;7.47;4.13;;;11.90;99.90;;;;;;5040561;28;20180;-87
2023/04/07 12:52:44;;;;;;;5.60;3.43;;;11.70;99.90;;;;;;5057092;28;20255;-90
2023/04/07 12:55:13;;;;;;;8.63;4.00;;;11.60;99.90;;;;;;5039607;28;20209;-87
2023/04/07 12:58:16;;;;;;;8.67;3.33;;;11.60;99.90;;;;;;5057044;28;20181;-88
2023/04/07 13:01:06;;;;;;;7.17;3.70;;;11.60;99.90;;;;;;5039071;28;20681;-90
2023/04/07 13:03:34;;;;;;;6.87;3.60;;;11.70;99.90;;;;;;5036994;28;20182;-88
2023/04/07 13:06:00;;;;;;;8.10;3.43;;;11.80;99.90;;;;;;5039375;28;20230;-86
2023/04/07 13:08:30;;;;;;;6.20;3.70;;;11.70;99.90;;;;;;5039167;28;20181;-87
2023/04/07 13:10:57;;;;;;;6.13;3.40;;;11.80;99.90;;;;;;5054633;28;20190;-86
2023/04/07 13:13:26;;;;;;;8.63;4.00;;;11.70;99.90;;;;;;5017074;28;20524;-88
2023/04/07 13:16:12;;;;;;;7.57;4.07;;;11.70;99.90;;;;;;5021763;28;20197;-90
2023/04/07 13:19:05;;;;;;;5.80;2.87;;;11.60;99.90;;;;;;5054805;28;20185;-89
2023/04/07 13:21:51;;;;;;;5.67;2.53;;;11.60;99.90;;;;;;5038214;28;20217;-90
2023/04/07 13:24:17;;;;;;;7.47;3.07;;;11.50;99.90;;;;;;5038021;28;20199;-87
2023/04/07 13:26:44;;;;;;;7.33;2.83;;;11.30;99.90;;;;;;5039510;28;20221;-87
2023/04/07 13:29:11;;;;;;;9.47;2.70;;;11.30;99.90;;;;;;5042155;28;20154;-87
2023/04/07 13:32:02;;;;;;;8.30;3.10;;;11.60;99.90;;;;;;5040073;28;20189;-86
2023/04/07 13:34:54;;;;;;;9.90;2.50;;;11.70;99.90;;;;;;5054617;28;20176;-87
2023/04/07 13:37:24;;;;;;;9.20;2.50;;;11.70;99.90;;;;;;5057114;28;20190;-87
2023/04/07 13:40:01;;;;;;;6.37;2.23;;;11.70;99.90;;;;;;5038537;28;20178;-87
2023/04/07 13:42:35;;;;;;;5.33;2.50;;;11.60;99.90;;;;;;5058766;28;20221;-88
2023/04/07 13:45:11;;;;;;;7.47;2.53;;;11.60;99.90;;;;;;5040649;28;20200;-89